Time;durP1;ratioP1;P1;durP2;ratioP2;P2;SDS_P1;SDS_P2;PMS_P1;PMS_P2;Temp;Humidity;BMP_temperature;BMP_pressure;BME280_temperature;BME280_humidity;BME280_pressure;Samples;Min_cycle;Max_cycle;Signal;HPM_P1;HPM_P2
2022/05/23 04:01:06;;;;;;;4.23;3.67;;;17.60;99.90;;;;;;5778188;23;20487;-66
2022/05/23 04:03:33;;;;;;;4.27;3.87;;;17.60;99.90;;;;;;4999463;28;20437;-66
2022/05/23 04:06:00;;;;;;;3.80;3.50;;;17.60;99.90;;;;;;4998744;28;20832;-66
2022/05/23 04:08:27;;;;;;;13.83;6.30;;;17.60;99.90;;;;;;5000384;28;20485;-65
2022/05/23 04:10:54;;;;;;;6.90;5.00;;;17.50;99.90;;;;;;5000019;28;20980;-65
2022/05/23 04:13:21;;;;;;;7.33;5.03;;;17.30;99.90;;;;;;4998136;28;20457;-65
2022/05/23 04:15:49;;;;;;;10.37;6.37;;;17.10;99.90;;;;;;4998160;28;20453;-65
2022/05/23 04:18:18;;;;;;;7.20;6.50;;;16.80;99.90;;;;;;4998227;28;20480;-65
2022/05/23 04:20:44;;;;;;;6.90;6.13;;;16.60;99.90;;;;;;4997936;28;20556;-64
2022/05/23 04:23:11;;;;;;;7.10;5.47;;;16.30;99.90;;;;;;4997577;28;20465;-65
2022/05/23 04:25:39;;;;;;;6.87;6.27;;;16.20;99.90;;;;;;4997769;28;20815;-65
2022/05/23 04:28:06;;;;;;;6.17;5.57;;;16.10;99.90;;;;;;4997826;28;20485;-65
2022/05/23 04:30:33;;;;;;;7.63;6.10;;;16.00;99.90;;;;;;4997529;28;20481;-64
2022/05/23 04:35:49;;;;;;;7.00;5.03;;;15.80;99.90;;;;;;4980773;28;20496;-64
2022/05/23 04:38:16;;;;;;;5.67;5.00;;;15.70;99.90;;;;;;4997284;28;20945;-65
2022/05/23 04:40:44;;;;;;;5.10;4.80;;;15.70;99.90;;;;;;4997377;28;20489;-66
2022/05/23 04:43:10;;;;;;;4.73;4.33;;;15.70;99.90;;;;;;4997406;28;20959;-64
2022/05/23 04:45:37;;;;;;;5.23;4.73;;;15.70;99.90;;;;;;4997762;28;20458;-65
2022/05/23 04:50:50;;;;;;;12.17;6.30;;;15.70;99.90;;;;;;4997765;28;20541;-64
2022/05/23 04:53:18;;;;;;;5.60;4.60;;;15.70;99.90;;;;;;4997307;28;20908;-66
2022/05/23 04:55:44;;;;;;;4.90;4.57;;;15.70;99.90;;;;;;4997335;28;20454;-65
2022/05/23 04:58:11;;;;;;;4.67;4.23;;;15.70;99.90;;;;;;4997118;28;20488;-64
2022/05/23 05:00:39;;;;;;;6.97;4.60;;;15.70;99.90;;;;;;4996998;28;20481;-65
2022/05/23 05:03:06;;;;;;;7.13;5.00;;;15.60;99.90;;;;;;4996639;28;20981;-64
2022/05/23 05:05:34;;;;;;;5.03;4.63;;;15.60;99.90;;;;;;4996516;28;20769;-65
2022/05/23 05:08:03;;;;;;;6.47;5.17;;;15.70;99.90;;;;;;4996935;28;20970;-66
2022/05/23 05:10:31;;;;;;;5.10;4.70;;;15.70;99.90;;;;;;4996912;28;20876;-64
2022/05/23 05:12:58;;;;;;;6.40;5.80;;;15.70;99.90;;;;;;4996822;28;20458;-65
2022/05/23 05:15:27;;;;;;;5.83;5.33;;;15.70;99.90;;;;;;4996711;28;20457;-65
2022/05/23 05:17:54;;;;;;;6.23;5.57;;;15.60;99.90;;;;;;4996571;28;20941;-65
2022/05/23 05:20:23;;;;;;;5.90;5.40;;;15.70;99.90;;;;;;4996943;28;20992;-65
2022/05/23 05:22:50;;;;;;;5.77;5.37;;;15.70;99.90;;;;;;4997289;28;20894;-64
2022/05/23 05:25:19;;;;;;;6.37;5.90;;;15.80;99.90;;;;;;4996613;28;20457;-65
2022/05/23 05:27:46;;;;;;;6.10;5.60;;;15.80;99.90;;;;;;4996444;28;20453;-66
2022/05/23 05:30:15;;;;;;;5.67;5.10;;;15.80;99.90;;;;;;4995753;28;20818;-66
2022/05/23 05:32:48;;;;;;;6.40;5.90;;;15.80;99.90;;;;;;4996037;28;20462;-65
2022/05/23 05:35:19;;;;;;;6.90;6.40;;;15.70;99.90;;;;;;4995822;28;20445;-66
2022/05/23 05:37:49;;;;;;;7.53;6.27;;;15.60;99.90;;;;;;4995837;28;20445;-65
2022/05/23 05:40:20;;;;;;;7.00;6.30;;;15.60;99.90;;;;;;4995950;28;20473;-65
2022/05/23 05:42:51;;;;;;;6.73;6.03;;;15.60;99.90;;;;;;4995744;28;20452;-65
2022/05/23 05:45:23;;;;;;;8.03;6.80;;;15.60;99.90;;;;;;4995879;28;20438;-67
2022/05/23 05:47:51;;;;;;;7.83;6.00;;;15.60;99.90;;;;;;4995508;28;20796;-67
2022/05/23 05:50:27;;;;;;;7.30;6.70;;;15.60;99.90;;;;;;4995398;28;20933;-69
2022/05/23 05:52:55;;;;;;;7.47;6.67;;;15.70;99.90;;;;;;4995821;28;20437;-69
2022/05/23 05:55:24;;;;;;;9.33;7.00;;;15.70;99.90;;;;;;4994678;28;20461;-68
2022/05/23 05:57:51;;;;;;;7.40;6.60;;;15.80;99.90;;;;;;4995616;28;20867;-68
2022/05/23 06:00:19;;;;;;;6.73;6.23;;;15.90;99.90;;;;;;4995185;28;20485;-66
2022/05/23 06:02:47;;;;;;;7.23;6.53;;;15.90;99.90;;;;;;4995638;28;20493;-68
2022/05/23 06:05:13;;;;;;;8.53;6.40;;;16.00;99.90;;;;;;4995704;28;20469;-66
2022/05/23 06:13:10;;;;;;;7.10;6.40;;;16.00;99.90;;;;;;4995393;28;20425;-66
2022/05/23 06:15:37;;;;;;;6.73;5.40;;;16.00;99.90;;;;;;4995232;28;20461;-67
2022/05/23 06:18:03;;;;;;;6.73;6.00;;;16.10;99.90;;;;;;4995260;28;20821;-67
2022/05/23 06:20:30;;;;;;;8.20;6.37;;;16.20;99.90;;;;;;4995004;28;20488;-67
2022/05/23 06:23:00;;;;;;;5.70;5.20;;;16.30;99.90;;;;;;4994793;28;20484;-68
2022/05/23 06:25:29;;;;;;;5.73;5.23;;;16.40;99.90;;;;;;4995111;28;20485;-67
2022/05/23 06:27:56;;;;;;;5.87;5.20;;;16.60;99.90;;;;;;4994994;28;20454;-68
2022/05/23 06:30:24;;;;;;;6.00;5.50;;;16.70;99.90;;;;;;4994956;28;20500;-67
2022/05/23 06:32:52;;;;;;;6.43;5.47;;;16.80;99.90;;;;;;4994906;28;20457;-67
2022/05/23 06:35:19;;;;;;;6.30;5.33;;;17.00;99.90;;;;;;4994924;28;20461;-67
2022/05/23 06:37:46;;;;;;;5.70;5.27;;;17.00;99.90;;;;;;4994948;28;20457;-67
2022/05/23 06:40:15;;;;;;;6.20;5.23;;;17.00;99.90;;;;;;4994756;28;20473;-67
2022/05/23 06:42:43;;;;;;;6.70;5.57;;;17.00;99.90;;;;;;4994718;28;20545;-67
2022/05/23 06:45:11;;;;;;;6.03;5.57;;;17.00;99.90;;;;;;4994899;28;20484;-67
2022/05/23 06:47:38;;;;;;;5.53;5.07;;;16.90;99.90;;;;;;4994784;28;20461;-67
2022/05/23 06:50:06;;;;;;;6.70;6.20;;;17.00;99.90;;;;;;4994641;28;20450;-67
2022/05/23 06:52:34;;;;;;;6.63;5.47;;;17.00;99.90;;;;;;4994839;28;20485;-67
2022/05/23 06:55:01;;;;;;;10.50;5.50;;;17.00;99.90;;;;;;4994725;28;20541;-67
2022/05/23 06:57:27;;;;;;;5.37;4.97;;;17.00;99.90;;;;;;4994588;28;20536;-67
2022/05/23 06:59:56;;;;;;;5.57;5.10;;;17.00;99.90;;;;;;4994537;28;20488;-67
2022/05/23 07:02:22;;;;;;;5.97;5.57;;;17.10;99.90;;;;;;4994159;28;20492;-67
2022/05/23 07:13:02;;;;;;;6.60;4.77;;;17.90;99.90;;;;;;4994791;28;20915;-67
2022/05/23 07:15:35;;;;;;;5.57;4.70;;;18.30;99.90;;;;;;4994283;28;20948;-67
2022/05/23 07:18:03;;;;;;;4.50;4.20;;;18.60;99.90;;;;;;4994615;28;20453;-67
2022/05/23 07:20:29;;;;;;;4.87;4.57;;;18.80;99.90;;;;;;4994191;28;20572;-67
2022/05/23 07:22:56;;;;;;;4.60;4.17;;;18.90;99.90;;;;;;4994103;28;20976;-68
2022/05/23 07:25:23;;;;;;;5.30;4.30;;;19.10;99.90;;;;;;4994314;28;20489;-67
2022/05/23 07:27:50;;;;;;;4.50;4.10;;;19.40;99.90;;;;;;4994346;28;20453;-67
2022/05/23 07:30:16;;;;;;;5.23;4.73;;;19.50;99.90;;;;;;4994233;28;20461;-67
2022/05/23 07:32:45;;;;;;;5.37;4.60;;;19.60;99.90;;;;;;4993952;28;21028;-67
2022/05/23 07:35:12;;;;;;;6.63;4.20;;;19.60;99.90;;;;;;4994244;28;20454;-67
2022/05/23 07:37:38;;;;;;;5.20;4.33;;;19.70;99.90;;;;;;4994326;28;20870;-67
2022/05/23 07:40:06;;;;;;;4.00;3.80;;;19.80;99.90;;;;;;4994355;28;20481;-67
2022/05/23 07:42:33;;;;;;;5.87;4.20;;;19.90;99.90;;;;;;4994193;28;20477;-67
2022/05/23 07:45:00;;;;;;;7.23;5.03;;;20.10;99.90;;;;;;4994305;28;20966;-67
2022/05/23 07:47:26;;;;;;;5.00;4.60;;;20.10;99.90;;;;;;4994321;28;20468;-67
2022/05/23 07:49:55;;;;;;;4.67;4.37;;;20.10;99.90;;;;;;4994319;28;20809;-66
2022/05/23 07:52:22;;;;;;;4.73;4.40;;;20.00;99.90;;;;;;4994229;28;20477;-68
2022/05/23 08:00:33;;;;;;;13.90;10.93;;;20.80;99.90;;;;;;4994634;28;20552;-66
2022/05/23 08:03:01;;;;;;;5.70;5.20;;;21.00;99.90;;;;;;4994445;28;20520;-66
2022/05/23 08:05:29;;;;;;;4.60;4.20;;;20.90;99.90;;;;;;4994135;28;20454;-67
2022/05/23 08:07:56;;;;;;;4.47;4.13;;;20.80;99.90;;;;;;4994094;28;20458;-68
2022/05/23 08:10:24;;;;;;;4.60;3.90;;;20.80;99.90;;;;;;4993887;28;20445;-68
2022/05/23 08:12:53;;;;;;;4.87;3.80;;;20.80;99.90;;;;;;4993584;28;20812;-68
2022/05/23 08:15:20;;;;;;;9.03;3.73;;;21.10;99.90;;;;;;4993872;28;20458;-67
2022/05/23 08:17:47;;;;;;;4.20;3.90;;;21.60;99.90;;;;;;4994491;28;20508;-68
2022/05/23 08:20:14;;;;;;;5.53;4.30;;;22.00;99.90;;;;;;4997326;28;20512;-68
2022/05/23 08:22:44;;;;;;;4.07;3.77;;;22.20;99.90;;;;;;4997438;28;20464;-67
2022/05/23 08:25:12;;;;;;;7.27;5.10;;;22.40;99.90;;;;;;4997477;28;20460;-68
2022/05/23 08:27:39;;;;;;;6.70;5.00;;;22.40;99.90;;;;;;4997264;28;20453;-68
2022/05/23 08:30:07;;;;;;;5.00;4.60;;;22.50;99.90;;;;;;4997085;28;20948;-68
2022/05/23 08:32:34;;;;;;;4.30;4.00;;;22.40;99.90;;;;;;4997113;28;20482;-67
2022/05/23 08:35:00;;;;;;;5.10;4.60;;;22.30;99.90;;;;;;4997233;28;20462;-68
2022/05/23 08:37:27;;;;;;;6.90;4.77;;;22.40;99.90;;;;;;4997292;28;20469;-68
2022/05/23 08:39:55;;;;;;;5.77;5.27;;;22.20;99.90;;;;;;4996687;28;20464;-69
2022/05/23 08:42:30;;;;;;;5.10;4.60;;;21.90;99.90;;;;;;4996821;28;20500;-69
2022/05/23 08:45:06;;;;;;;5.50;4.93;;;21.80;99.90;;;;;;4996993;28;20529;-68
2022/05/23 08:47:39;;;;;;;6.00;5.07;;;21.80;99.90;;;;;;4997106;28;20441;-68
2022/05/23 08:50:13;;;;;;;5.50;4.33;;;21.60;99.90;;;;;;4996929;28;20473;-68
2022/05/23 08:52:46;;;;;;;9.10;4.73;;;21.40;99.90;;;;;;4996836;28;20444;-68
2022/05/23 08:55:20;;;;;;;4.47;4.07;;;21.30;99.90;;;;;;4996588;28;20438;-68
2022/05/23 08:57:54;;;;;;;4.30;3.90;;;21.10;99.90;;;;;;4996592;28;20446;-68
2022/05/23 09:00:25;;;;;;;4.80;4.40;;;21.00;99.90;;;;;;4996635;28;20821;-67
2022/05/23 09:02:55;;;;;;;3.90;3.60;;;20.90;99.90;;;;;;4996988;28;20528;-67
2022/05/23 09:05:28;;;;;;;4.27;3.87;;;20.90;99.90;;;;;;4996524;28;20438;-69
2022/05/23 09:07:59;;;;;;;4.13;3.73;;;20.90;99.90;;;;;;4996812;28;20496;-68
2022/05/23 09:10:32;;;;;;;4.73;4.00;;;20.90;99.90;;;;;;4996581;28;20442;-69
2022/05/23 09:12:58;;;;;;;4.20;3.87;;;20.90;99.90;;;;;;4997495;28;20438;-68
2022/05/23 09:15:25;;;;;;;4.20;3.90;;;21.10;99.90;;;;;;4997502;28;20465;-68
2022/05/23 09:17:55;;;;;;;4.73;3.40;;;21.20;99.90;;;;;;4998113;28;20839;-68
2022/05/23 09:20:32;;;;;;;4.07;3.67;;;21.40;99.90;;;;;;4996626;28;20473;-68
2022/05/23 09:23:03;;;;;;;3.80;3.50;;;21.60;99.90;;;;;;4995955;28;20509;-67
2022/05/23 09:25:31;;;;;;;4.80;3.70;;;21.80;99.90;;;;;;4995969;28;20901;-68
2022/05/23 09:28:19;;;;;;;4.80;4.17;;;22.00;99.90;;;;;;4996174;28;20453;-67
2022/05/23 09:30:50;;;;;;;5.37;4.50;;;22.20;99.90;;;;;;4995950;28;20480;-67
2022/05/23 09:33:19;;;;;;;4.17;3.67;;;22.30;99.90;;;;;;4996093;28;20442;-68
2022/05/23 09:35:55;;;;;;;4.57;4.17;;;22.50;99.90;;;;;;4995953;28;20454;-68
2022/05/23 09:38:25;;;;;;;7.70;4.50;;;22.70;99.90;;;;;;4995810;28;20787;-68
2022/05/23 09:40:54;;;;;;;5.80;4.80;;;22.80;99.90;;;;;;4995822;28;20489;-67
2022/05/23 09:49:05;;;;;;;4.13;3.73;;;22.80;99.90;;;;;;5001240;28;20418;-67
2022/05/23 09:51:32;;;;;;;4.60;4.20;;;23.00;99.90;;;;;;4999127;28;20477;-67
2022/05/23 09:54:02;;;;;;;5.80;4.47;;;23.30;99.90;;;;;;4996701;28;20572;-67
2022/05/23 09:56:37;;;;;;;4.90;4.10;;;23.50;99.90;;;;;;4995904;28;20457;-67
2022/05/23 09:59:08;;;;;;;8.10;4.60;;;23.70;99.90;;;;;;4996029;28;20442;-67
2022/05/23 10:01:35;;;;;;;8.67;4.53;;;23.80;99.90;;;;;;4995544;28;20492;-68
2022/05/23 10:04:02;;;;;;;5.07;4.67;;;23.90;99.90;;;;;;4996852;28;20461;-67
2022/05/23 10:06:40;;;;;;;5.00;4.50;;;23.90;99.90;;;;;;4998856;28;20488;-67
2022/05/23 10:09:08;;;;;;;4.50;3.80;;;24.00;99.90;;;;;;4997805;28;20464;-68
2022/05/23 10:11:38;;;;;;;5.07;4.40;;;24.20;99.90;;;;;;4995688;28;20505;-68
2022/05/23 10:14:06;;;;;;;7.03;4.30;;;24.60;99.90;;;;;;4995261;28;20949;-68
2022/05/23 10:16:45;;;;;;;4.27;3.87;;;25.20;99.90;;;;;;4995223;28;20940;-68
2022/05/23 10:19:24;;;;;;;5.30;4.87;;;26.20;99.90;;;;;;4995259;28;20445;-68
2022/05/23 10:22:06;;;;;;;4.43;3.93;;;26.70;99.90;;;;;;4995656;28;20490;-68
2022/05/23 10:24:36;;;;;;;9.70;4.40;;;27.20;99.90;;;;;;4995300;28;20438;-67
2022/05/23 10:27:08;;;;;;;6.53;4.17;;;27.30;99.90;;;;;;4995424;28;20469;-69
2022/05/23 10:29:44;;;;;;;6.10;4.07;;;27.40;99.90;;;;;;4994883;28;20445;-69
2022/05/23 10:32:14;;;;;;;4.57;4.10;;;27.30;99.90;;;;;;4995278;28;20531;-68
2022/05/23 10:34:43;;;;;;;4.30;3.90;;;27.20;99.90;;;;;;4995251;28;20446;-70
2022/05/23 10:37:14;;;;;;;3.70;3.40;;;27.00;99.90;;;;;;4995191;28;20508;-68
2022/05/23 10:42:35;;;;;;;5.10;3.70;;;26.40;99.90;;;;;;4994783;28;20593;-68
2022/05/23 10:45:13;;;;;;;5.63;4.27;;;26.20;99.90;;;;;;4994898;28;20445;-70
2022/05/23 10:48:05;;;;;;;4.00;3.70;;;25.90;99.90;;;;;;4995060;28;20445;-70
2022/05/23 10:50:38;;;;;;;4.37;3.93;;;25.70;99.90;;;;;;4994482;28;20940;-69
2022/05/23 10:53:11;;;;;;;4.40;3.40;;;25.50;99.90;;;;;;4995271;28;20442;-67
2022/05/23 10:55:47;;;;;;;4.90;3.60;;;25.40;99.90;;;;;;4995798;28;20445;-68
2022/05/23 10:58:24;;;;;;;4.57;4.27;;;25.40;99.90;;;;;;4994579;28;20920;-68
2022/05/23 11:00:59;;;;;;;5.10;4.70;;;25.20;99.90;;;;;;4994657;28;20493;-69
2022/05/23 11:03:35;;;;;;;3.90;3.70;;;25.20;99.90;;;;;;4995286;28;20444;-69
2022/05/23 11:06:10;;;;;;;4.67;3.87;;;24.90;99.90;;;;;;4994678;28;20984;-69
2022/05/23 11:08:51;;;;;;;5.70;3.70;;;24.90;99.90;;;;;;4994747;28;20453;-69
2022/05/23 11:11:26;;;;;;;3.70;3.40;;;24.70;99.90;;;;;;4994684;28;20943;-68
2022/05/23 11:14:08;;;;;;;4.40;4.00;;;24.50;99.90;;;;;;4994817;28;20913;-68
2022/05/23 11:16:43;;;;;;;4.33;4.03;;;24.30;99.90;;;;;;4994952;28;20906;-69
2022/05/23 11:19:24;;;;;;;5.20;4.13;;;24.10;99.90;;;;;;4995140;28;20437;-68
2022/05/23 11:22:01;;;;;;;10.57;5.30;;;23.90;99.90;;;;;;4994996;28;20489;-67
2022/05/23 11:24:36;;;;;;;8.73;5.90;;;23.50;99.90;;;;;;4995082;28;20521;-68
2022/05/23 11:35:42;;;;;;;9.40;8.37;;;21.70;99.90;;;;;;4994456;28;20460;-68
2022/05/23 11:38:09;;;;;;;11.97;7.57;;;21.40;99.90;;;;;;4994509;28;20435;-68
2022/05/23 11:41:01;;;;;;;7.73;6.93;;;21.20;99.90;;;;;;4994288;28;20495;-66
2022/05/23 11:43:29;;;;;;;8.80;7.27;;;20.90;99.90;;;;;;4994069;28;20913;-67
2022/05/23 11:45:59;;;;;;;8.77;8.07;;;20.70;99.90;;;;;;4994986;28;20465;-66
2022/05/23 11:48:58;;;;;;;9.07;7.10;;;20.60;99.90;;;;;;4995038;28;20442;-65
2022/05/23 11:51:36;;;;;;;9.87;7.37;;;20.50;99.90;;;;;;4995134;28;20827;-66
2022/05/23 11:54:08;;;;;;;10.60;7.20;;;20.40;99.90;;;;;;4997093;28;20434;-66
2022/05/23 11:56:55;;;;;;;7.70;7.07;;;20.30;99.90;;;;;;4998116;28;20472;-67
2022/05/23 12:00:05;;;;;;;8.00;7.40;;;20.20;99.90;;;;;;4959105;28;20449;-67
2022/05/23 12:02:38;;;;;;;9.23;7.13;;;20.00;99.90;;;;;;4918496;29;20491;-67
2022/05/23 12:05:31;;;;;;;7.20;6.07;;;20.00;99.90;;;;;;4918702;29;20996;-66
2022/05/23 12:08:04;;;;;;;6.43;5.83;;;19.80;99.90;;;;;;4976137;28;20457;-68
2022/05/23 12:10:59;;;;;;;10.93;5.70;;;19.80;99.90;;;;;;4997986;28;20453;-68
2022/05/23 12:13:48;;;;;;;6.60;5.40;;;19.70;99.90;;;;;;4997989;28;20442;-68
2022/05/23 12:16:36;;;;;;;7.77;5.80;;;19.60;99.90;;;;;;4997944;28;20438;-67
2022/05/23 12:19:30;;;;;;;8.07;6.30;;;19.50;99.90;;;;;;4998382;28;20445;-67
2022/05/23 12:22:20;;;;;;;7.13;5.90;;;19.40;99.90;;;;;;4997374;28;20488;-66
2022/05/23 12:24:59;;;;;;;8.60;5.73;;;19.40;99.90;;;;;;4997665;28;20441;-66
2022/05/23 12:27:30;;;;;;;6.73;5.83;;;19.40;99.90;;;;;;4997560;28;20453;-67
2022/05/23 12:30:31;;;;;;;11.93;6.63;;;19.40;99.90;;;;;;4997487;28;20442;-67
2022/05/23 12:33:08;;;;;;;10.10;7.00;;;19.30;99.90;;;;;;4997576;28;20441;-67
2022/05/23 12:35:52;;;;;;;7.30;6.63;;;19.20;99.90;;;;;;4997548;28;20438;-67
2022/05/23 12:38:30;;;;;;;8.50;6.00;;;19.10;99.90;;;;;;4997197;28;20936;-67
2022/05/23 12:41:08;;;;;;;7.50;5.83;;;19.00;99.90;;;;;;4996916;28;20474;-67
2022/05/23 12:43:45;;;;;;;7.00;5.13;;;19.00;99.90;;;;;;4997313;28;20469;-68
2022/05/23 12:46:25;;;;;;;6.10;5.40;;;19.00;99.90;;;;;;4997286;28;20441;-67
2022/05/23 12:49:26;;;;;;;5.23;4.73;;;19.00;99.90;;;;;;4997224;28;20521;-67
2022/05/23 12:52:10;;;;;;;5.57;4.80;;;19.00;99.90;;;;;;4982950;28;20980;-68
2022/05/23 12:54:58;;;;;;;6.07;5.57;;;19.20;99.90;;;;;;4997294;28;20434;-68
2022/05/23 12:57:58;;;;;;;9.23;5.93;;;19.30;99.90;;;;;;4997280;28;20434;-68
2022/05/23 13:00:31;;;;;;;10.83;4.87;;;19.50;99.90;;;;;;4996856;28;21024;-68
2022/05/23 13:03:07;;;;;;;7.57;5.10;;;19.60;99.90;;;;;;4997614;28;20540;-68
2022/05/23 13:05:40;;;;;;;5.90;4.70;;;19.60;99.90;;;;;;4996687;28;20460;-68
2022/05/23 13:08:18;;;;;;;8.53;4.90;;;19.70;99.90;;;;;;4996938;28;20442;-67
2022/05/23 13:10:52;;;;;;;4.97;3.97;;;19.90;99.90;;;;;;4996848;28;20473;-67
2022/05/23 13:13:24;;;;;;;5.63;5.10;;;20.10;99.90;;;;;;4997643;28;20822;-67
2022/05/23 13:15:51;;;;;;;6.87;3.77;;;20.30;99.90;;;;;;4996257;28;20901;-68
2022/05/23 13:23:57;;;;;;;7.27;3.70;;;20.90;99.90;;;;;;4972589;28;20445;-68
2022/05/23 13:26:29;;;;;;;4.70;4.07;;;21.20;99.90;;;;;;4996566;28;20450;-68
2022/05/23 13:28:56;;;;;;;5.70;3.93;;;21.40;99.90;;;;;;4997876;28;20445;-69
2022/05/23 13:31:25;;;;;;;3.93;3.37;;;21.50;99.90;;;;;;4996939;28;20480;-68
2022/05/23 13:33:52;;;;;;;8.43;3.43;;;21.50;99.90;;;;;;4996428;28;20480;-69
2022/05/23 13:36:19;;;;;;;5.70;3.83;;;21.50;99.90;;;;;;4996348;28;20453;-68
2022/05/23 13:39:04;;;;;;;5.10;3.23;;;21.50;99.90;;;;;;4996311;28;20453;-68
2022/05/23 13:41:32;;;;;;;8.40;3.90;;;21.70;99.90;;;;;;4996795;28;20493;-68
2022/05/23 13:43:59;;;;;;;4.10;3.70;;;22.00;99.90;;;;;;4996528;28;20491;-68
2022/05/23 13:46:32;;;;;;;5.17;3.40;;;22.30;99.90;;;;;;4996424;28;20454;-68
2022/05/23 13:49:05;;;;;;;5.57;3.63;;;22.40;99.90;;;;;;4996164;28;20438;-68
2022/05/23 13:51:38;;;;;;;8.83;4.37;;;22.60;99.90;;;;;;4996098;28;20489;-68
2022/05/23 13:54:10;;;;;;;6.77;3.20;;;22.80;99.90;;;;;;4995906;28;20444;-68
2022/05/23 13:56:42;;;;;;;5.83;3.57;;;23.00;99.90;;;;;;4996254;28;20477;-68
2022/05/23 13:59:18;;;;;;;7.03;3.50;;;23.20;99.90;;;;;;4997843;28;20442;-69
2022/05/23 14:01:50;;;;;;;5.10;3.53;;;23.40;99.90;;;;;;4996614;28;20980;-68
2022/05/23 14:04:20;;;;;;;12.03;3.70;;;23.50;99.90;;;;;;4997499;28;20438;-68
2022/05/23 14:06:50;;;;;;;3.20;2.80;;;23.60;99.90;;;;;;4998138;28;20458;-68
2022/05/23 14:09:21;;;;;;;8.80;3.60;;;23.70;99.90;;;;;;4997193;28;20886;-68
2022/05/23 14:11:52;;;;;;;6.13;3.13;;;23.90;99.90;;;;;;4997667;28;20477;-68
2022/05/23 14:14:23;;;;;;;5.33;3.40;;;24.10;99.90;;;;;;4997723;28;20429;-68
2022/05/23 14:16:54;;;;;;;7.50;3.87;;;24.30;99.90;;;;;;4997225;28;20460;-68
2022/05/23 14:19:24;;;;;;;5.67;3.90;;;24.40;99.90;;;;;;4997977;28;20485;-68
2022/05/23 14:22:04;;;;;;;5.07;2.67;;;24.30;99.90;;;;;;4997803;28;21007;-68
2022/05/23 14:24:39;;;;;;;6.17;3.40;;;24.40;99.90;;;;;;4997581;28;21048;-68
2022/05/23 14:27:20;;;;;;;3.43;3.13;;;24.40;99.90;;;;;;4997530;28;20445;-68
2022/05/23 14:29:48;;;;;;;5.67;3.53;;;24.50;99.90;;;;;;4997839;28;20442;-68
2022/05/23 14:32:24;;;;;;;8.17;3.33;;;24.60;99.90;;;;;;4997139;28;21016;-69
2022/05/23 14:34:51;;;;;;;9.70;3.27;;;24.80;99.90;;;;;;4998811;28;20444;-69
2022/05/23 14:37:21;;;;;;;9.97;3.30;;;25.00;99.90;;;;;;4999021;28;20458;-68
2022/05/23 14:39:52;;;;;;;9.30;4.30;;;25.10;99.90;;;;;;4999893;28;20470;-67
2022/05/23 14:42:23;;;;;;;5.20;3.10;;;25.40;99.90;;;;;;4999304;28;20493;-70
2022/05/23 14:45:06;;;;;;;5.27;3.67;;;25.50;99.90;;;;;;4998647;28;20536;-69
2022/05/23 14:47:32;;;;;;;8.33;4.30;;;25.80;99.90;;;;;;4997965;28;20462;-69
2022/05/23 14:50:04;;;;;;;5.63;3.47;;;25.90;99.90;;;;;;4999026;28;20464;-67
2022/05/23 14:52:36;;;;;;;6.60;4.00;;;25.90;99.90;;;;;;4998690;28;20564;-67
2022/05/23 14:55:20;;;;;;;6.87;3.50;;;25.90;99.90;;;;;;4997502;28;20458;-68
2022/05/23 15:00:48;;;;;;;6.13;3.20;;;25.90;99.90;;;;;;4995154;28;20501;-69
2022/05/23 15:03:20;;;;;;;5.20;3.30;;;25.60;99.90;;;;;;4994906;28;20860;-68
2022/05/23 15:05:47;;;;;;;4.73;3.23;;;25.50;99.90;;;;;;4995331;28;20465;-68
2022/05/23 15:08:14;;;;;;;8.60;3.07;;;25.40;99.90;;;;;;4995587;28;20458;-68
2022/05/23 15:10:42;;;;;;;4.83;3.33;;;25.50;99.90;;;;;;4995745;28;20585;-68
2022/05/23 15:13:10;;;;;;;4.63;3.57;;;25.50;99.90;;;;;;4996295;28;20937;-68
2022/05/23 15:15:37;;;;;;;5.00;3.30;;;25.40;99.90;;;;;;4996612;28;20461;-68
2022/05/23 15:18:05;;;;;;;6.07;3.80;;;25.50;99.90;;;;;;4996467;28;20453;-69
2022/05/23 15:20:32;;;;;;;8.10;3.37;;;25.50;99.90;;;;;;4996794;28;20461;-68
2022/05/23 15:22:59;;;;;;;3.97;3.20;;;25.50;99.90;;;;;;4996457;28;20553;-67
2022/05/23 15:25:27;;;;;;;5.30;3.63;;;25.50;99.90;;;;;;4997205;28;20945;-68
2022/05/23 15:27:55;;;;;;;3.97;3.00;;;25.50;99.90;;;;;;5000283;28;20457;-68
2022/05/23 15:30:25;;;;;;;5.20;3.53;;;25.40;99.90;;;;;;5001951;28;20515;-68
2022/05/23 15:32:53;;;;;;;4.40;2.87;;;25.40;99.90;;;;;;5001809;28;20504;-67
2022/05/23 15:35:21;;;;;;;5.53;3.17;;;25.20;99.90;;;;;;5001352;28;20449;-68
2022/05/23 15:37:48;;;;;;;4.67;2.90;;;25.10;99.90;;;;;;5000416;28;20456;-68
2022/05/23 15:40:16;;;;;;;8.53;3.50;;;24.90;99.90;;;;;;4999399;28;20825;-68
2022/05/23 15:42:44;;;;;;;5.90;3.77;;;24.90;99.90;;;;;;4998487;28;20988;-68
2022/05/23 15:45:16;;;;;;;10.03;4.37;;;24.90;99.90;;;;;;4998789;28;20453;-68
2022/05/23 15:47:43;;;;;;;3.70;2.57;;;24.90;99.90;;;;;;4998284;28;20834;-68
2022/05/23 15:50:13;;;;;;;5.57;3.93;;;24.90;99.90;;;;;;4998191;28;20933;-67
2022/05/23 15:52:40;;;;;;;3.87;3.47;;;24.80;99.90;;;;;;4998291;28;20454;-68
2022/05/23 15:55:08;;;;;;;4.03;3.60;;;24.70;99.90;;;;;;4998316;28;20457;-68
2022/05/23 15:57:41;;;;;;;7.00;3.57;;;24.70;99.90;;;;;;4997939;28;20818;-67
2022/05/23 16:00:13;;;;;;;7.17;3.87;;;24.60;99.90;;;;;;4998129;28;20463;-67
2022/05/23 16:02:41;;;;;;;5.20;4.70;;;24.60;99.90;;;;;;4998169;28;20500;-66
2022/05/23 16:05:10;;;;;;;6.50;3.60;;;24.50;99.90;;;;;;4997850;28;20938;-67
2022/05/23 16:07:37;;;;;;;3.60;2.93;;;24.40;99.90;;;;;;4997772;28;20968;-68
2022/05/23 16:10:05;;;;;;;4.33;3.37;;;24.20;99.90;;;;;;4997826;28;20454;-67
2022/05/23 16:12:35;;;;;;;7.40;3.70;;;24.20;99.90;;;;;;4998143;28;20478;-68
2022/05/23 16:15:03;;;;;;;6.97;3.50;;;24.00;99.90;;;;;;4998290;28;20552;-68
2022/05/23 16:17:32;;;;;;;8.07;3.83;;;23.90;99.90;;;;;;4997973;28;20453;-67
2022/05/23 16:20:00;;;;;;;8.57;4.17;;;23.70;99.90;;;;;;4998716;28;20931;-67
2022/05/23 16:22:26;;;;;;;7.80;3.60;;;23.60;99.90;;;;;;4997839;28;21056;-67
2022/05/23 16:24:53;;;;;;;6.30;3.30;;;23.40;99.90;;;;;;5000021;28;20462;-68
2022/05/23 16:27:20;;;;;;;6.03;3.67;;;23.30;99.90;;;;;;4999750;28;20818;-67
2022/05/23 16:29:47;;;;;;;4.43;3.30;;;23.20;99.90;;;;;;5001138;28;20790;-67
2022/05/23 16:37:41;;;;;;;4.33;3.40;;;23.00;99.90;;;;;;4999499;28;21071;-67
2022/05/23 16:40:08;;;;;;;8.13;4.73;;;23.00;99.90;;;;;;4999805;28;20453;-67
2022/05/23 16:42:36;;;;;;;3.93;3.53;;;23.00;99.90;;;;;;4999937;28;20492;-68
2022/05/23 16:45:03;;;;;;;4.83;3.47;;;22.90;99.90;;;;;;4999296;28;20457;-68
2022/05/23 16:47:30;;;;;;;8.07;4.10;;;22.90;99.90;;;;;;4998876;28;20454;-68
2022/05/23 16:49:58;;;;;;;5.17;3.50;;;22.80;99.90;;;;;;4997753;28;20453;-67
2022/05/23 16:52:25;;;;;;;10.87;4.03;;;22.60;99.90;;;;;;4997696;28;20480;-67
2022/05/23 16:54:52;;;;;;;8.47;5.00;;;22.40;99.90;;;;;;4997407;28;20462;-68
2022/05/23 16:57:19;;;;;;;5.27;3.50;;;22.30;99.90;;;;;;4997238;28;20461;-68
2022/05/23 16:59:46;;;;;;;7.77;3.63;;;22.10;99.90;;;;;;4996714;28;20485;-67
2022/05/23 17:02:13;;;;;;;5.33;3.37;;;21.90;99.90;;;;;;4996407;28;20521;-68
2022/05/23 17:04:39;;;;;;;5.53;3.03;;;21.70;99.90;;;;;;4996771;28;20952;-68
2022/05/23 17:07:07;;;;;;;4.53;3.13;;;21.50;99.90;;;;;;4996877;28;20454;-67
2022/05/23 17:09:34;;;;;;;6.60;3.93;;;21.40;99.90;;;;;;4996576;28;20945;-67
2022/05/23 17:12:02;;;;;;;5.87;3.37;;;21.30;99.90;;;;;;4996716;28;20480;-68
2022/05/23 17:14:29;;;;;;;4.93;3.27;;;21.20;99.90;;;;;;4996717;28;20534;-68
2022/05/23 17:16:56;;;;;;;5.13;3.80;;;21.10;99.90;;;;;;4996708;28;20489;-68
2022/05/23 17:19:23;;;;;;;4.20;3.60;;;21.10;99.90;;;;;;4996609;28;20453;-69
2022/05/23 17:21:50;;;;;;;3.37;2.80;;;21.00;99.90;;;;;;4996224;28;20972;-68
2022/05/23 17:24:18;;;;;;;7.73;3.53;;;21.00;99.90;;;;;;4996421;28;20818;-68
2022/05/23 17:26:44;;;;;;;5.20;3.07;;;20.90;99.90;;;;;;4996455;28;20454;-67
2022/05/23 17:29:11;;;;;;;5.87;2.40;;;20.80;99.90;;;;;;4996546;28;20461;-68
2022/05/23 17:31:38;;;;;;;6.57;3.23;;;20.70;99.90;;;;;;4996305;28;20485;-68
2022/05/23 17:34:05;;;;;;;6.93;3.10;;;20.70;99.90;;;;;;4996424;28;20819;-68
2022/05/23 17:36:31;;;;;;;5.40;3.03;;;20.70;99.90;;;;;;4996284;28;20458;-68
2022/05/23 17:38:58;;;;;;;6.03;3.00;;;20.60;99.90;;;;;;4996283;28;20485;-67
2022/05/23 17:41:26;;;;;;;6.70;3.47;;;20.60;99.90;;;;;;4996224;28;20488;-67
2022/05/23 17:43:54;;;;;;;6.93;4.13;;;20.70;99.90;;;;;;4996171;28;20992;-67
2022/05/23 17:46:23;;;;;;;6.23;3.00;;;20.70;99.90;;;;;;4997099;28;20453;-69
2022/05/23 17:48:50;;;;;;;6.40;3.10;;;20.60;99.90;;;;;;4997230;28;20457;-69
2022/05/23 17:51:17;;;;;;;4.67;2.90;;;20.50;99.90;;;;;;4996609;28;20513;-68
2022/05/23 17:53:44;;;;;;;4.30;2.80;;;20.40;99.90;;;;;;4997947;28;20449;-73
2022/05/23 17:56:11;;;;;;;8.67;3.30;;;20.30;99.90;;;;;;4996714;28;20531;-68
2022/05/23 17:58:41;;;;;;;4.53;3.30;;;20.30;99.90;;;;;;4996379;28;20461;-68
2022/05/23 18:01:07;;;;;;;6.37;2.90;;;20.30;99.90;;;;;;4996414;28;20822;-69